Terminal Aerodrome Forecast
Issued by NWS Upton, NY

Home | Current Version | Previous Version | Text Only | Print | Product List | Glossary On
Versions: 1 2 3 4 5 6 7 8 9 10 11 12 13 14 15 16 17 18 19 20 21 22 23 24 25 26 27 28
000
FTUS41 KOKX 310523
TAFISP
TAF
KISP 310523Z 3106/0106 23007KT P6SM FEW050 BKN100
     FM311200 25008KT P6SM SCT100 BKN250
     FM311600 24011KT P6SM FEW050 BKN250
     FM312000 23013KT P6SM SCT050 BKN250
     FM010100 25007KT P6SM FEW050 SCT250=

USA.gov is the U.S. government's official web portal to all federal, state and local government web resources and services.